Time;durP1;ratioP1;P1;durP2;ratioP2;P2;SDS_P1;SDS_P2;PMS_P1;PMS_P2;Temp;Humidity;BMP_temperature;BMP_pressure;BME280_temperature;BME280_humidity;BME280_pressure;Samples;Min_cycle;Max_cycle;Signal;HPM_P1;HPM_P2
2022/08/19 00:00:36;;;;;;;;;;;;;;;29.83;37.31;99824.84;5387320;32;34787;-64
2022/08/19 00:03:38;;;;;;;;;;;;;;;30.14;36.46;99819.84;5369007;32;34322;-78
2022/08/19 00:06:41;;;;;;;;;;;;;;;29.61;37.52;99824.88;5381799;32;35300;-64
2022/08/19 00:09:43;;;;;;;;;;;;;;;29.83;37.44;99824.84;5364300;32;35392;-64
2022/08/19 00:12:45;;;;;;;;;;;;;;;30.02;37.09;99820.56;5380080;32;44895;-78
2022/08/19 00:15:47;;;;;;;;;;;;;;;30.09;36.55;99827.69;5374692;32;34579;-77
2022/08/19 00:18:49;;;;;;;;;;;;;;;30.44;35.88;99828.50;5361722;32;35047;-65
2022/08/19 00:21:51;;;;;;;;;;;;;;;29.38;38.10;99818.84;5385957;32;35775;-77
2022/08/19 00:24:53;;;;;;;;;;;;;;;29.42;38.12;99820.09;5364156;32;34496;-65
2022/08/19 00:27:55;;;;;;;;;;;;;;;29.52;37.66;99817.09;5384324;32;34944;-64
2022/08/19 00:30:57;;;;;;;;;;;;;;;28.97;38.51;99829.47;5371146;32;35551;-78
2022/08/19 00:33:59;;;;;;;;;;;;;;;29.54;36.94;99821.28;5375353;32;34584;-65
2022/08/19 00:37:00;;;;;;;;;;;;;;;28.64;38.92;99821.81;5399755;32;34724;-65
2022/08/19 00:40:04;;;;;;;;;;;;;;;30.05;36.51;99823.72;5369020;32;35484;-72
2022/08/19 00:43:10;;;;;;;;;;;;;;;28.78;38.70;99825.50;5386661;32;35646;-64
2022/08/19 00:46:11;;;;;;;;;;;;;;;28.77;39.08;99829.22;5379171;32;34297;-64
2022/08/19 00:49:15;;;;;;;;;;;;;;;28.46;39.69;99827.63;5364663;32;35505;-77
2022/08/19 00:52:28;;;;;;;;;;;;;;;28.36;40.09;99824.38;5375681;32;44649;-64
2022/08/19 00:55:31;;;;;;;;;;;;;;;28.87;38.54;99821.66;5346356;32;34726;-65
2022/08/19 00:58:33;;;;;;;;;;;;;;;28.38;39.48;99816.09;5367963;32;34457;-71
2022/08/19 01:01:39;;;;;;;;;;;;;;;28.92;38.25;99813.84;5332806;32;933423;-64
2022/08/19 01:04:41;;;;;;;;;;;;;;;28.73;38.99;99812.56;5379801;32;34406;-65
2022/08/19 01:07:43;;;;;;;;;;;;;;;28.67;39.11;99823.31;5371293;32;34855;-79
2022/08/19 01:10:47;;;;;;;;;;;;;;;29.24;37.97;99806.22;5371424;32;45116;-77
2022/08/19 01:13:49;;;;;;;;;;;;;;;28.40;39.79;99812.16;5358596;32;35260;-73
2022/08/19 01:16:54;;;;;;;;;;;;;;;29.00;38.56;99813.72;5366768;32;35760;-63
2022/08/19 01:19:56;;;;;;;;;;;;;;;29.31;38.13;99820.66;5367269;32;35238;-73
2022/08/19 01:22:58;;;;;;;;;;;;;;;28.80;38.96;99815.34;5364160;32;35034;-72
2022/08/19 01:26:00;;;;;;;;;;;;;;;28.24;40.23;99810.47;5371055;32;34665;-64
2022/08/19 01:29:03;;;;;;;;;;;;;;;28.49;39.87;99808.34;5358355;32;34309;-73
2022/08/19 01:32:06;;;;;;;;;;;;;;;29.19;38.59;99798.69;5382039;32;35482;-77
2022/08/19 01:35:29;;;;;;;;;;;;;;;29.76;37.42;99807.72;5367925;32;36096;-64
2022/08/19 01:38:31;;;;;;;;;;;;;;;29.16;38.55;99811.75;5359989;32;34213;-65
2022/08/19 01:41:35;;;;;;;;;;;;;;;29.06;38.97;99799.41;5388138;32;35450;-64
2022/08/19 01:44:38;;;;;;;;;;;;;;;27.88;41.78;99806.84;5365013;32;35663;-79
2022/08/19 01:47:40;;;;;;;;;;;;;;;28.06;41.52;99799.22;5382927;32;36958;-65
2022/08/19 01:50:43;;;;;;;;;;;;;;;28.36;40.86;99786.56;5369846;32;36402;-78
2022/08/19 01:53:47;;;;;;;;;;;;;;;27.96;41.85;99788.72;5364543;32;45390;-77
2022/08/19 01:56:50;;;;;;;;;;;;;;;27.94;42.02;99792.63;5370948;32;34646;-66
2022/08/19 01:59:51;;;;;;;;;;;;;;;27.79;42.53;99788.06;5334641;32;35175;-63
2022/08/19 02:02:54;;;;;;;;;;;;;;;27.90;42.51;99773.25;5388056;32;34971;-65
2022/08/19 02:05:57;;;;;;;;;;;;;;;28.40;41.58;99774.31;5362103;32;35030;-77
2022/08/19 02:08:59;;;;;;;;;;;;;;;28.98;39.96;99780.63;5370796;32;34719;-63
2022/08/19 02:12:01;;;;;;;;;;;;;;;27.98;42.11;99780.41;5362691;32;34208;-63
2022/08/19 02:15:03;;;;;;;;;;;;;;;27.43;43.67;99781.63;5361546;32;34254;-77
2022/08/19 02:18:05;;;;;;;;;;;;;;;27.60;43.30;99766.13;5380262;32;34447;-77
2022/08/19 02:21:07;;;;;;;;;;;;;;;27.32;44.04;99763.22;5368248;32;34717;-64
2022/08/19 02:24:09;;;;;;;;;;;;;;;28.22;42.08;99763.91;5364539;32;34132;-77
2022/08/19 02:27:11;;;;;;;;;;;;;;;27.47;43.57;99778.41;5351744;32;35703;-64
2022/08/19 02:30:15;;;;;;;;;;;;;;;28.19;41.89;99755.34;5379975;32;35036;-78
2022/08/19 02:33:17;;;;;;;;;;;;;;;27.53;43.51;99763.34;5367764;32;45058;-64
2022/08/19 02:36:19;;;;;;;;;;;;;;;27.83;42.83;99753.44;5376569;32;35259;-65
2022/08/19 02:39:21;;;;;;;;;;;;;;;27.38;43.95;99762.50;5362795;32;35188;-78
2022/08/19 02:42:24;;;;;;;;;;;;;;;27.40;43.78;99765.84;5375147;32;34980;-72
2022/08/19 02:45:25;;;;;;;;;;;;;;;28.19;41.93;99776.94;5386077;32;34760;-65
2022/08/19 02:48:27;;;;;;;;;;;;;;;27.65;43.11;99769.97;5365190;32;34523;-77
2022/08/19 02:51:31;;;;;;;;;;;;;;;27.36;43.96;99780.69;5390417;32;35293;-64
2022/08/19 02:54:32;;;;;;;;;;;;;;;28.06;42.41;99777.63;5350854;32;34281;-78
2022/08/19 02:57:35;;;;;;;;;;;;;;;27.67;43.39;99783.25;5349738;32;34193;-65
2022/08/19 03:00:42;;;;;;;;;;;;;;;26.81;45.53;99801.53;5393391;32;34531;-63
2022/08/19 03:03:44;;;;;;;;;;;;;;;27.46;44.15;99798.31;5369933;32;44719;-77
2022/08/19 03:06:46;;;;;;;;;;;;;;;27.69;43.62;99803.66;5384091;32;34427;-64
2022/08/19 03:09:48;;;;;;;;;;;;;;;27.07;45.36;99808.44;5350579;32;34944;-77
2022/08/19 03:12:50;;;;;;;;;;;;;;;27.68;43.83;99803.84;5381597;32;34702;-65
2022/08/19 03:15:52;;;;;;;;;;;;;;;26.82;46.04;99805.88;5377608;32;34984;-72
2022/08/19 03:18:55;;;;;;;;;;;;;;;26.85;46.04;99810.91;5360741;32;35587;-66
2022/08/19 03:21:57;;;;;;;;;;;;;;;26.97;45.73;99817.56;5386845;32;34651;-78
2022/08/19 03:24:59;;;;;;;;;;;;;;;27.00;45.87;99816.38;5367959;32;34651;-65
2022/08/19 03:28:01;;;;;;;;;;;;;;;26.61;46.71;99824.56;5390558;32;34212;-72
2022/08/19 03:31:04;;;;;;;;;;;;;;;26.44;47.22;99827.31;5370295;32;34738;-64
2022/08/19 03:34:27;;;;;;;;;;;;;;;26.78;46.17;99818.03;5371266;32;35567;-78
2022/08/19 03:37:29;;;;;;;;;;;;;;;26.37;47.34;99823.63;5375014;32;35124;-76
2022/08/19 03:40:31;;;;;;;;;;;;;;;27.01;45.47;99823.44;5367668;32;34620;-71
2022/08/19 03:43:34;;;;;;;;;;;;;;;27.25;44.84;99833.25;5381413;32;34606;-63
2022/08/19 03:46:36;;;;;;;;;;;;;;;26.77;46.24;99835.22;5372976;32;34362;-77
2022/08/19 03:49:43;;;;;;;;;;;;;;;26.69;46.18;99827.19;5377740;32;35165;-77
2022/08/19 03:52:49;;;;;;;;;;;;;;;26.19;47.97;99834.63;5356822;32;47881;-63
2022/08/19 03:55:51;;;;;;;;;;;;;;;27.06;45.32;99829.19;5338349;32;34847;-64
2022/08/19 03:58:53;;;;;;;;;;;;;;;27.30;44.48;99822.72;5349995;32;35141;-64
2022/08/19 04:01:56;;;;;;;;;;;;;;;27.06;44.98;99844.53;5359983;32;35367;-72
2022/08/19 04:04:58;;;;;;;;;;;;;;;25.82;47.99;99839.78;5376962;32;34710;-64
2022/08/19 04:08:00;;;;;;;;;;;;;;;25.67;48.46;99842.31;5367650;32;35296;-78
2022/08/19 04:11:06;;;;;;;;;;;;;;;26.08;48.21;99843.09;5387300;32;34651;-64
2022/08/19 04:14:08;;;;;;;;;;;;;;;26.64;45.59;99843.06;5364797;32;35623;-76
2022/08/19 04:17:12;;;;;;;;;;;;;;;26.87;44.85;99857.41;5355140;32;34105;-64
2022/08/19 04:20:14;;;;;;;;;;;;;;;26.15;46.75;99854.03;5369571;32;43746;-77
2022/08/19 04:23:16;;;;;;;;;;;;;;;26.64;45.52;99859.22;5366839;32;35117;-63
2022/08/19 04:26:20;;;;;;;;;;;;;;;26.57;46.01;99874.44;5392880;32;35180;-64
2022/08/19 04:29:24;;;;;;;;;;;;;;;27.38;44.01;99863.16;5362838;32;34520;-78
2022/08/19 04:32:26;;;;;;;;;;;;;;;26.87;45.11;99857.41;5370882;32;35862;-78
2022/08/19 04:35:34;;;;;;;;;;;;;;;27.07;44.66;99846.19;5380593;32;34331;-77
2022/08/19 04:38:36;;;;;;;;;;;;;;;27.67;43.22;99850.75;5365951;32;34784;-78
2022/08/19 04:44:58;;;;;;;;;;;;;;;27.73;43.03;99869.78;5376057;32;35247;-64
2022/08/19 04:48:01;;;;;;;;;;;;;;;27.17;44.17;99880.00;5362538;32;35335;-64
2022/08/19 04:51:23;;;;;;;;;;;;;;;27.02;45.00;99870.13;5385104;32;45031;-77
2022/08/19 04:54:25;;;;;;;;;;;;;;;26.68;45.70;99874.88;5348108;32;35253;-77
2022/08/19 04:57:39;;;;;;;;;;;;;;;26.58;46.33;99865.31;5367728;32;34245;-65
2022/08/19 05:00:41;;;;;;;;;;;;;;;26.67;45.51;99858.88;5380411;32;35189;-77
2022/08/19 05:03:43;;;;;;;;;;;;;;;27.35;44.54;99873.47;5382154;32;44696;-63
2022/08/19 05:06:47;;;;;;;;;;;;;;;27.22;45.02;99868.66;5361513;32;45247;-64
2022/08/19 05:09:48;;;;;;;;;;;;;;;27.88;44.09;99871.66;5367540;32;34864;-78
2022/08/19 05:12:59;;;;;;;;;;;;;;;28.42;41.91;99868.75;5383627;32;34220;-65
2022/08/19 05:16:02;;;;;;;;;;;;;;;28.41;41.82;99865.22;5367154;32;34950;-78
2022/08/19 05:22:37;;;;;;;;;;;;;;;28.25;42.12;99868.06;5369003;32;35514;-73
2022/08/19 05:25:39;;;;;;;;;;;;;;;28.93;40.50;99861.50;5385909;32;34773;-77
2022/08/19 05:28:42;;;;;;;;;;;;;;;29.07;39.96;99863.31;5374617;32;34385;-65
2022/08/19 05:31:44;;;;;;;;;;;;;;;28.27;41.65;99866.88;5374494;32;45387;-65
2022/08/19 05:34:46;;;;;;;;;;;;;;;28.64;41.04;99864.22;5379468;32;34684;-77
2022/08/19 05:37:48;;;;;;;;;;;;;;;29.12;39.86;99865.44;5366711;32;35539;-73
2022/08/19 05:40:55;;;;;;;;;;;;;;;29.20;39.37;99864.47;5370351;32;34306;-70
2022/08/19 05:43:57;;;;;;;;;;;;;;;30.52;36.72;99861.91;5367133;32;34238;-63
2022/08/19 05:47:00;;;;;;;;;;;;;;;29.81;37.76;99864.81;5359110;32;34956;-73
2022/08/19 05:50:02;;;;;;;;;;;;;;;29.60;38.56;99865.69;5381956;32;34430;-70
2022/08/19 05:53:06;;;;;;;;;;;;;;;31.45;34.86;99858.47;5356342;32;34078;-72
2022/08/19 05:56:08;;;;;;;;;;;;;;;28.90;39.62;99874.50;5378308;32;34094;-68
2022/08/19 05:59:11;;;;;;;;;;;;;;;30.13;37.48;99872.34;5370192;32;35524;-76
2022/08/19 06:02:13;;;;;;;;;;;;;;;30.48;36.26;99867.75;5386310;32;36818;-76
2022/08/19 06:05:16;;;;;;;;;;;;;;;31.38;34.94;99873.91;5373374;32;45097;-89
2022/08/19 06:08:18;;;;;;;;;;;;;;;32.64;32.69;99860.12;5357888;32;34376;-81
2022/08/19 06:11:24;;;;;;;;;;;;;;;31.07;35.24;99868.19;5391093;32;35745;-71
2022/08/19 06:14:30;;;;;;;;;;;;;;;30.91;35.62;99867.50;5367413;32;34247;-73
2022/08/19 06:17:34;;;;;;;;;;;;;;;31.90;33.80;99863.28;5383624;32;34032;-76
2022/08/19 06:20:37;;;;;;;;;;;;;;;32.66;32.51;99860.78;5368524;32;34584;-72
2022/08/19 06:23:56;;;;;;;;;;;;;;;32.47;32.63;99867.97;5373594;32;34378;-70
2022/08/19 06:26:59;;;;;;;;;;;;;;;32.32;32.87;99867.34;5379592;32;34909;-71
2022/08/19 06:30:03;;;;;;;;;;;;;;;32.81;32.15;99863.19;5365554;32;34228;-70
2022/08/19 06:33:05;;;;;;;;;;;;;;;33.47;30.93;99854.66;5384395;32;34402;-67
2022/08/19 06:36:08;;;;;;;;;;;;;;;33.52;31.42;99845.81;5377794;32;34145;-67
2022/08/19 06:39:11;;;;;;;;;;;;;;;32.47;32.21;99843.50;5369361;32;33323;-69
2022/08/19 06:42:16;;;;;;;;;;;;;;;33.82;30.13;99835.91;5356589;32;34366;-78
2022/08/19 06:45:20;;;;;;;;;;;;;;;33.52;30.58;99837.66;5356772;32;44675;-69
2022/08/19 06:48:26;;;;;;;;;;;;;;;33.55;31.01;99854.38;5381016;32;35363;-71
2022/08/19 06:51:28;;;;;;;;;;;;;;;35.53;27.60;99842.94;5373141;32;35886;-73
2022/08/19 06:54:33;;;;;;;;;;;;;;;34.60;29.20;99834.44;5386538;32;33971;-70
2022/08/19 06:57:53;;;;;;;;;;;;;;;34.82;28.64;99838.31;5352013;32;44422;-73
2022/08/19 07:00:57;;;;;;;;;;;;;;;34.85;28.22;99843.34;5379094;32;34141;-70
2022/08/19 07:04:02;;;;;;;;;;;;;;;34.79;28.61;99838.81;5375202;32;34758;-70
2022/08/19 07:07:09;;;;;;;;;;;;;;;35.01;28.00;99841.87;5373192;32;34704;-74
2022/08/19 07:10:21;;;;;;;;;;;;;;;34.86;27.86;99853.19;5373198;32;44119;-70
2022/08/19 07:13:22;;;;;;;;;;;;;;;35.16;27.60;99858.63;5372456;32;34340;-68
2022/08/19 07:16:25;;;;;;;;;;;;;;;34.92;27.54;99857.75;5389399;32;35742;-70
2022/08/19 07:19:31;;;;;;;;;;;;;;;36.44;25.76;99861.72;5366631;32;34208;-74
2022/08/19 07:22:34;;;;;;;;;;;;;;;36.61;24.92;99874.41;5376863;32;35478;-76
2022/08/19 07:25:37;;;;;;;;;;;;;;;37.52;24.07;99871.75;5388311;32;34157;-75
2022/08/19 07:28:42;;;;;;;;;;;;;;;38.11;23.34;99869.38;5366868;32;33162;-71
2022/08/19 07:31:52;;;;;;;;;;;;;;;38.53;22.91;99855.13;5377090;32;44444;-74
2022/08/19 07:34:55;;;;;;;;;;;;;;;36.88;24.65;99863.75;5370356;32;34451;-70
2022/08/19 07:37:58;;;;;;;;;;;;;;;36.61;25.17;99854.41;5356458;32;35443;-74
2022/08/19 07:41:00;;;;;;;;;;;;;;;37.77;23.46;99863.09;5385687;32;34176;-67
2022/08/19 07:44:03;;;;;;;;;;;;;;;37.10;24.41;99857.59;5363824;32;33006;-77
2022/08/19 07:47:06;;;;;;;;;;;;;;;38.58;22.60;99854.34;5394402;32;35425;-72
2022/08/19 07:50:28;;;;;;;;;;;;;;;37.00;24.82;99858.22;5363149;32;34739;-68
2022/08/19 07:53:30;;;;;;;;;;;;;;;38.04;23.41;99838.56;5383675;32;34515;-70
2022/08/19 07:56:39;;;;;;;;;;;;;;;39.48;21.15;99850.94;5366013;32;34579;-75
2022/08/19 07:59:41;;;;;;;;;;;;;;;39.53;20.32;99853.69;5371204;32;36107;-74
2022/08/19 08:02:43;;;;;;;;;;;;;;;39.55;20.45;99847.97;5389785;32;35474;-82
2022/08/19 08:09:11;;;;;;;;;;;;;;;38.30;21.74;99847.97;5381730;32;35432;-76
2022/08/19 08:12:24;;;;;;;;;;;;;;;40.48;19.24;99844.69;5375576;32;44989;-73
2022/08/19 08:15:38;;;;;;;;;;;;;;;39.42;20.62;99851.97;5371340;32;35469;-72
2022/08/19 08:18:44;;;;;;;;;;;;;;;41.24;18.38;99842.13;5394341;32;35356;-76
2022/08/19 08:21:55;;;;;;;;;;;;;;;40.70;18.78;99847.22;5361255;32;44733;-74
2022/08/19 08:24:58;;;;;;;;;;;;;;;40.78;18.74;99849.47;5383000;32;35325;-72
2022/08/19 08:28:01;;;;;;;;;;;;;;;39.70;20.09;99844.50;5359229;32;34921;-72
2022/08/19 08:31:03;;;;;;;;;;;;;;;39.73;19.64;99854.97;5380768;32;34246;-69
2022/08/19 08:34:12;;;;;;;;;;;;;;;38.82;20.96;99842.03;5384141;32;34718;-69
2022/08/19 08:37:14;;;;;;;;;;;;;;;39.53;20.26;99845.44;5373667;32;34351;-75
2022/08/19 08:40:36;;;;;;;;;;;;;;;39.16;20.52;99845.44;5371133;32;45337;-73
2022/08/19 08:43:42;;;;;;;;;;;;;;;40.51;18.86;99842.25;5371310;32;35264;-82
2022/08/19 08:46:52;;;;;;;;;;;;;;;40.95;18.45;99838.22;5378081;32;44824;-75
2022/08/19 08:50:03;;;;;;;;;;;;;;;41.93;17.48;99832.47;5386303;32;33270;-69
2022/08/19 08:53:05;;;;;;;;;;;;;;;39.61;19.83;99833.19;5371806;32;34135;-69
2022/08/19 08:56:12;;;;;;;;;;;;;;;41.53;17.96;99814.00;5358745;32;35043;-66
2022/08/19 08:59:24;;;;;;;;;;;;;;;41.42;17.55;99807.69;5361500;32;44499;-72
2022/08/19 09:02:26;;;;;;;;;;;;;;;40.27;19.29;99799.72;5373462;32;34164;-69
2022/08/19 09:05:40;;;;;;;;;;;;;;;41.94;17.43;99806.50;5374181;32;34228;-69
2022/08/19 09:09:04;;;;;;;;;;;;;;;42.31;16.81;99811.59;5360838;32;44594;-67
2022/08/19 09:12:21;;;;;;;;;;;;;;;40.96;18.24;99817.84;5383960;32;35587;-67
2022/08/19 09:15:39;;;;;;;;;;;;;;;40.63;18.76;99819.13;5378166;32;34326;-68
2022/08/19 09:18:41;;;;;;;;;;;;;;;40.46;19.02;99811.91;5363753;32;36034;-76
2022/08/19 09:21:43;;;;;;;;;;;;;;;42.87;15.85;99803.03;5383147;32;32934;-83
2022/08/19 09:24:52;;;;;;;;;;;;;;;42.75;16.53;99807.25;5371388;32;44682;-76
2022/08/19 09:27:56;;;;;;;;;;;;;;;40.84;18.09;99812.56;5389842;32;34398;-88
2022/08/19 09:31:03;;;;;;;;;;;;;;;42.91;15.56;99806.88;5378740;32;33676;-84
2022/08/19 09:34:05;;;;;;;;;;;;;;;43.23;15.28;99795.31;5392503;32;35376;-82
2022/08/19 09:37:08;;;;;;;;;;;;;;;41.33;17.19;99799.12;5381123;32;34474;-89
2022/08/19 09:40:11;;;;;;;;;;;;;;;41.57;17.02;99787.53;5367251;32;35745;-77
2022/08/19 09:43:13;;;;;;;;;;;;;;;41.37;17.36;99783.69;5391657;32;35564;-78
2022/08/19 09:46:33;;;;;;;;;;;;;;;42.20;16.81;99787.94;5373541;32;35142;-78
2022/08/19 09:49:35;;;;;;;;;;;;;;;43.26;15.52;99777.31;5386274;32;34155;-89
2022/08/19 09:52:39;;;;;;;;;;;;;;;42.50;16.19;99759.31;5375034;32;34183;-77
2022/08/19 09:55:55;;;;;;;;;;;;;;;41.58;17.16;99764.34;5371737;32;34353;-80
2022/08/19 09:59:00;;;;;;;;;;;;;;;44.23;14.44;99773.53;5371509;32;34252;-80
2022/08/19 10:02:02;;;;;;;;;;;;;;;43.87;14.75;99760.13;5371662;32;33937;-79
2022/08/19 10:08:33;;;;;;;;;;;;;;;42.03;16.53;99743.25;5376020;32;34337;-89
2022/08/19 10:11:37;;;;;;;;;;;;;;;43.53;14.87;99752.72;5384338;32;34550;-80
2022/08/19 10:14:42;;;;;;;;;;;;;;;44.23;14.39;99741.13;5372255;32;34279;-65
2022/08/19 10:17:44;;;;;;;;;;;;;;;44.05;14.82;99751.00;5350953;32;46358;-66
2022/08/19 10:21:03;;;;;;;;;;;;;;;42.99;15.83;99745.47;5386843;32;34797;-83
2022/08/19 10:24:05;;;;;;;;;;;;;;;44.52;13.80;99743.75;5370747;32;35408;-65
2022/08/19 10:27:10;;;;;;;;;;;;;;;44.79;13.28;99733.94;5388236;32;37719;-81
2022/08/19 10:30:12;;;;;;;;;;;;;;;45.00;13.35;99737.22;5371841;32;34234;-66
2022/08/19 10:33:14;;;;;;;;;;;;;;;44.49;13.94;99738.78;5374199;32;43818;-66
2022/08/19 10:36:37;;;;;;;;;;;;;;;45.11;13.48;99728.41;5392201;32;34674;-79
2022/08/19 10:39:57;;;;;;;;;;;;;;;42.45;16.15;99735.34;5372242;32;35669;-66
2022/08/19 10:42:59;;;;;;;;;;;;;;;44.23;14.40;99740.28;5385396;32;35401;-82
2022/08/19 10:46:01;;;;;;;;;;;;;;;44.03;14.28;99725.56;5381184;32;34788;-80
2022/08/19 10:49:10;;;;;;;;;;;;;;;42.28;16.07;99731.28;5372276;32;33997;-65
2022/08/19 10:58:56;;;;;;;;;;;;;;;43.00;15.57;99735.25;5373888;32;34482;-82
2022/08/19 11:01:58;;;;;;;;;;;;;;;43.59;14.64;99741.59;5376164;32;34596;-65
2022/08/19 11:05:00;;;;;;;;;;;;;;;43.60;14.39;99743.25;5368257;32;34651;-75
2022/08/19 11:08:14;;;;;;;;;;;;;;;42.02;15.96;99730.56;5376828;32;45028;-67
2022/08/19 11:11:24;;;;;;;;;;;;;;;42.44;15.50;99739.19;5364636;32;34817;-72
2022/08/19 11:14:27;;;;;;;;;;;;;;;42.57;15.38;99731.41;5393620;32;34914;-66
2022/08/19 11:17:32;;;;;;;;;;;;;;;42.18;15.72;99734.94;5378836;32;34187;-65
2022/08/19 11:20:34;;;;;;;;;;;;;;;42.68;15.37;99727.47;5369428;32;35565;-65
2022/08/19 11:23:36;;;;;;;;;;;;;;;43.25;14.93;99725.88;5387162;32;35007;-66
2022/08/19 11:26:39;;;;;;;;;;;;;;;45.11;13.11;99727.59;5376352;32;34872;-65
2022/08/19 11:29:41;;;;;;;;;;;;;;;43.11;14.95;99733.22;5386693;32;36085;-66
2022/08/19 11:32:42;;;;;;;;;;;;;;;44.65;13.71;99721.97;5377933;32;33422;-66
2022/08/19 11:35:50;;;;;;;;;;;;;;;44.80;13.61;99716.19;5386270;32;46182;-66
2022/08/19 11:38:52;;;;;;;;;;;;;;;45.62;13.00;99719.16;5374819;32;34821;-83
2022/08/19 11:41:54;;;;;;;;;;;;;;;46.27;11.99;99725.59;5384997;32;34338;-83
2022/08/19 11:44:55;;;;;;;;;;;;;;;45.89;12.39;99723.88;5376079;32;35250;-83
2022/08/19 11:47:57;;;;;;;;;;;;;;;45.15;13.14;99714.75;5376223;32;34530;-82
2022/08/19 11:51:05;;;;;;;;;;;;;;;46.43;12.03;99715.75;5396153;32;35029;-65
2022/08/19 11:54:07;;;;;;;;;;;;;;;46.42;11.85;99705.78;5367076;32;34970;-66
2022/08/19 11:57:08;;;;;;;;;;;;;;;45.62;12.53;99710.81;5373365;32;34551;-66
2022/08/19 12:00:12;;;;;;;;;;;;;;;46.34;12.26;99693.47;5381442;32;34724;-64
2022/08/19 12:03:14;;;;;;;;;;;;;;;47.52;11.22;99694.06;5375005;32;43254;-66
2022/08/19 12:06:25;;;;;;;;;;;;;;;46.37;12.13;99694.78;5391451;32;34464;-66
2022/08/19 12:09:27;;;;;;;;;;;;;;;46.23;12.10;99685.69;5377382;32;35427;-66
2022/08/19 12:12:31;;;;;;;;;;;;;;;47.22;11.24;99677.12;5395425;32;34275;-66
2022/08/19 12:15:37;;;;;;;;;;;;;;;47.48;11.16;99681.97;5378118;32;34027;-65
2022/08/19 12:18:42;;;;;;;;;;;;;;;47.81;10.75;99687.16;5362691;32;34372;-82
2022/08/19 12:21:44;;;;;;;;;;;;;;;45.84;12.09;99684.31;5370650;32;47153;-79
2022/08/19 12:24:46;;;;;;;;;;;;;;;44.35;13.54;99698.31;5372079;32;35015;-65
2022/08/19 12:27:49;;;;;;;;;;;;;;;42.75;14.84;99697.56;5395151;32;34945;-65
2022/08/19 12:30:58;;;;;;;;;;;;;;;42.92;14.63;99691.62;5383682;32;35419;-66
2022/08/19 12:34:01;;;;;;;;;;;;;;;42.23;15.52;99693.50;5398655;32;35389;-79
2022/08/19 12:37:04;;;;;;;;;;;;;;;42.84;14.93;99697.78;5380254;32;35184;-75
2022/08/19 12:40:06;;;;;;;;;;;;;;;42.72;14.84;99693.44;5386993;32;34848;-74
2022/08/19 12:43:08;;;;;;;;;;;;;;;42.44;15.15;99692.22;5390161;32;35117;-65
2022/08/19 12:46:10;;;;;;;;;;;;;;;44.37;13.60;99674.72;5382181;32;34089;-66
2022/08/19 12:49:13;;;;;;;;;;;;;;;43.13;14.62;99692.28;5385215;32;36721;-79
2022/08/19 12:52:42;;;;;;;;;;;;;;;42.50;15.11;99678.41;5382906;32;34542;-65
2022/08/19 12:55:44;;;;;;;;;;;;;;;43.10;14.46;99673.53;5371872;32;45133;-65
2022/08/19 12:58:46;;;;;;;;;;;;;;;42.16;15.28;99668.97;5376717;32;35396;-66
2022/08/19 13:01:53;;;;;;;;;;;;;;;40.66;16.75;99661.59;5366524;32;35305;-66
2022/08/19 13:04:55;;;;;;;;;;;;;;;40.93;16.49;99658.59;5387210;32;34916;-79
2022/08/19 13:07:59;;;;;;;;;;;;;;;41.01;16.41;99667.09;5362954;32;34938;-65
2022/08/19 13:11:08;;;;;;;;;;;;;;;39.22;18.11;99663.03;5375701;32;35160;-81
2022/08/19 13:14:11;;;;;;;;;;;;;;;40.26;17.01;99666.78;5380338;32;35664;-65
2022/08/19 13:17:15;;;;;;;;;;;;;;;40.56;16.91;99662.41;5371344;32;35124;-64
2022/08/19 13:20:18;;;;;;;;;;;;;;;39.59;17.82;99662.09;5374242;32;44844;-79
2022/08/19 13:23:21;;;;;;;;;;;;;;;39.86;17.47;99652.88;5349109;32;35208;-65
2022/08/19 13:26:23;;;;;;;;;;;;;;;39.64;17.70;99655.81;5393049;32;34778;-64
2022/08/19 13:36:07;;;;;;;;;;;;;;;39.78;17.40;99633.03;5391705;32;34726;-66
2022/08/19 13:39:09;;;;;;;;;;;;;;;39.93;17.29;99642.44;5378705;32;34906;-82
2022/08/19 13:42:13;;;;;;;;;;;;;;;39.87;17.52;99638.00;5379337;32;35408;-66
2022/08/19 13:45:17;;;;;;;;;;;;;;;40.60;16.47;99642.31;5374074;32;43170;-65
2022/08/19 13:48:19;;;;;;;;;;;;;;;40.52;16.75;99637.38;5369686;32;34342;-65
2022/08/19 13:51:21;;;;;;;;;;;;;;;40.46;16.79;99640.38;5381508;32;35486;-81
2022/08/19 13:54:23;;;;;;;;;;;;;;;39.59;17.68;99623.59;5388878;32;34766;-81
2022/08/19 13:57:24;;;;;;;;;;;;;;;40.23;16.91;99616.94;5368941;32;35621;-65
2022/08/19 14:00:27;;;;;;;;;;;;;;;38.99;18.10;99624.91;5380472;32;34349;-65
2022/08/19 14:03:30;;;;;;;;;;;;;;;38.79;18.44;99613.78;5389568;32;35045;-65
2022/08/19 14:06:32;;;;;;;;;;;;;;;39.23;17.97;99608.88;5366958;32;34560;-73
2022/08/19 14:09:34;;;;;;;;;;;;;;;38.20;20.63;99628.34;5387243;32;34088;-81
2022/08/19 14:12:35;;;;;;;;;;;;;;;36.93;23.88;99638.47;5378012;32;35166;-65
2022/08/19 14:15:37;;;;;;;;;;;;;;;36.55;25.13;99644.66;5382103;32;35151;-65
2022/08/19 14:18:39;;;;;;;;;;;;;;;35.97;26.19;99649.31;5378426;32;35317;-75
2022/08/19 14:21:41;;;;;;;;;;;;;;;35.47;26.92;99649.06;5350894;32;34700;-82
2022/08/19 14:24:43;;;;;;;;;;;;;;;35.25;27.07;99663.31;5383428;32;34959;-66
2022/08/19 14:27:49;;;;;;;;;;;;;;;34.84;27.83;99671.56;5352306;32;44506;-64
2022/08/19 14:30:52;;;;;;;;;;;;;;;34.77;27.79;99663.50;5385841;32;35183;-65
2022/08/19 14:33:57;;;;;;;;;;;;;;;35.12;27.56;99668.19;5377442;32;35879;-65
2022/08/19 14:36:59;;;;;;;;;;;;;;;33.79;29.53;99659.19;5378081;32;34505;-65
2022/08/19 14:40:03;;;;;;;;;;;;;;;34.34;28.73;99650.94;5395771;32;34267;-81
2022/08/19 14:43:05;;;;;;;;;;;;;;;34.65;28.57;99660.78;5377433;32;34393;-82
2022/08/19 14:46:07;;;;;;;;;;;;;;;34.51;28.35;99663.94;5380040;32;34582;-80
2022/08/19 14:49:11;;;;;;;;;;;;;;;33.96;28.87;99677.69;5365654;32;35436;-63
2022/08/19 14:52:13;;;;;;;;;;;;;;;33.55;29.38;99671.00;5373497;32;37301;-64
2022/08/19 14:55:16;;;;;;;;;;;;;;;34.08;28.34;99659.50;5369999;32;34776;-65
2022/08/19 14:58:19;;;;;;;;;;;;;;;34.02;28.18;99676.78;5346178;32;34656;-65
2022/08/19 15:01:30;;;;;;;;;;;;;;;33.33;28.79;99695.94;5377029;32;36381;-66
2022/08/19 15:04:33;;;;;;;;;;;;;;;33.89;27.03;99707.72;5365536;32;34965;-64
2022/08/19 15:07:34;;;;;;;;;;;;;;;33.62;25.60;99707.19;5394043;32;34976;-65
2022/08/19 15:10:38;;;;;;;;;;;;;;;33.38;25.49;99706.16;5374996;32;34679;-64
2022/08/19 15:13:40;;;;;;;;;;;;;;;32.98;25.94;99703.00;5384640;32;37339;-78
2022/08/19 15:16:42;;;;;;;;;;;;;;;33.23;25.61;99719.28;5373748;32;35197;-81
2022/08/19 15:19:44;;;;;;;;;;;;;;;33.21;25.49;99726.84;5367210;32;43671;-65
2022/08/19 15:22:46;;;;;;;;;;;;;;;32.82;26.02;99724.19;5374910;32;34298;-64
2022/08/19 15:25:53;;;;;;;;;;;;;;;33.13;25.39;99741.59;5376349;32;35407;-80
2022/08/19 15:28:55;;;;;;;;;;;;;;;33.21;25.39;99745.91;5395212;32;35337;-80
2022/08/19 15:31:57;;;;;;;;;;;;;;;33.03;25.60;99763.00;5379487;32;34278;-81
2022/08/19 15:35:01;;;;;;;;;;;;;;;33.37;24.99;99776.16;5385896;32;34685;-64
2022/08/19 15:38:05;;;;;;;;;;;;;;;33.74;24.47;99781.66;5389269;32;35185;-79
2022/08/19 15:41:24;;;;;;;;;;;;;;;34.08;24.16;99791.19;5376942;32;34937;-65
2022/08/19 15:44:26;;;;;;;;;;;;;;;33.82;24.37;99788.75;5395001;32;35385;-65
2022/08/19 15:47:28;;;;;;;;;;;;;;;33.07;25.30;99778.69;5377877;32;35580;-74
2022/08/19 15:50:38;;;;;;;;;;;;;;;32.67;25.82;99748.19;5378766;32;34738;-64
2022/08/19 15:53:43;;;;;;;;;;;;;;;32.74;25.79;99710.03;5380454;32;36716;-64
2022/08/19 16:06:49;;;;;;;;;;;;;;;33.14;26.65;99705.13;5371706;32;45227;-64
2022/08/19 16:09:51;;;;;;;;;;;;;;;34.17;25.64;99705.28;5374980;32;34952;-65
2022/08/19 16:12:55;;;;;;;;;;;;;;;32.97;27.43;99704.03;5376619;32;35036;-73
2022/08/19 16:15:57;;;;;;;;;;;;;;;33.11;26.93;99703.69;5392557;32;34738;-66
2022/08/19 16:19:05;;;;;;;;;;;;;;;32.72;27.67;99687.63;5364557;32;34354;-65
2022/08/19 16:22:13;;;;;;;;;;;;;;;32.55;27.49;99679.19;5380991;32;34554;-66
2022/08/19 16:25:14;;;;;;;;;;;;;;;32.87;27.26;99672.72;5367744;32;46162;-78
2022/08/19 16:28:16;;;;;;;;;;;;;;;33.58;26.36;99684.19;5381286;32;35314;-79
2022/08/19 16:31:18;;;;;;;;;;;;;;;33.01;26.97;99689.75;5391308;32;34969;-80
2022/08/19 16:34:20;;;;;;;;;;;;;;;33.82;25.85;99705.09;5366977;32;35090;-79
2022/08/19 16:37:22;;;;;;;;;;;;;;;34.04;25.13;99718.25;5378475;32;35153;-80